Time;durP1;ratioP1;P1;durP2;ratioP2;P2;SDS_P1;SDS_P2;PMS_P1;PMS_P2;Temp;Humidity;BMP_temperature;BMP_pressure;BME280_temperature;BME280_humidity;BME280_pressure;Samples;Min_cycle;Max_cycle;Signal;HPM_P1;HPM_P2
2022/10/02 00:00:07;;;;;;;13.48;3.60;;;;;;;11.90;100.00;101343.25;4946436;29;20405;-74
2022/10/02 00:02:44;;;;;;;11.75;3.10;;;;;;;11.88;100.00;101334.75;4931499;29;20497;-74
2022/10/02 00:05:20;;;;;;;12.23;3.38;;;;;;;11.87;100.00;101348.69;4939559;28;20467;-74
2022/10/02 00:07:51;;;;;;;13.70;3.40;;;;;;;11.87;99.94;101327.88;4940441;29;20039;-74
2022/10/02 00:10:34;;;;;;;11.80;3.67;;;;;;;11.93;99.57;101337.81;4934761;29;20043;-74
2022/10/02 00:13:06;;;;;;;11.93;4.03;;;;;;;11.88;100.00;101343.38;4929588;29;20553;-74
2022/10/02 00:15:34;;;;;;;11.20;3.40;;;;;;;11.81;100.00;101338.72;4945164;29;20023;-76
2022/10/02 00:18:24;;;;;;;11.40;3.22;;;;;;;11.85;99.77;101341.00;4944855;29;20097;-74
2022/10/02 00:21:02;;;;;;;10.07;3.10;;;;;;;11.80;100.00;101348.31;4945679;28;20039;-74
2022/10/02 00:23:38;;;;;;;9.80;3.03;;;;;;;11.80;99.68;101339.69;4959481;28;20030;-74
2022/10/02 00:26:11;;;;;;;12.18;3.13;;;;;;;11.74;99.72;101342.78;4973551;28;20124;-74
2022/10/02 00:28:46;;;;;;;8.85;2.88;;;;;;;11.75;99.34;101344.41;4997802;28;20074;-74
2022/10/02 00:31:30;;;;;;;11.23;3.05;;;;;;;11.74;99.44;101347.97;4983231;28;20125;-73
2022/10/02 00:33:59;;;;;;;9.88;3.13;;;;;;;11.75;99.71;101336.63;4975004;28;20054;-74
2022/10/02 00:36:56;;;;;;;9.02;2.85;;;;;;;11.79;99.94;101343.25;4970037;28;20041;-74
2022/10/02 00:40:00;;;;;;;11.15;3.38;;;;;;;11.86;98.97;101334.03;4981037;28;20093;-74
2022/10/02 00:42:28;;;;;;;11.57;4.03;;;;;;;11.87;98.85;101327.88;4994439;28;20108;-73
2022/10/02 00:45:12;;;;;;;14.52;4.70;;;;;;;11.87;98.89;101333.09;4986428;28;20034;-74
2022/10/02 00:47:51;;;;;;;12.50;5.30;;;;;;;11.88;98.89;101332.97;4985438;28;20129;-74
2022/10/02 00:50:25;;;;;;;16.05;6.93;;;;;;;11.89;99.15;101328.59;4984797;28;20037;-75
2022/10/02 00:53:02;;;;;;;20.00;8.05;;;;;;;11.87;99.47;101336.53;4982172;28;20030;-74
2022/10/02 00:55:51;;;;;;;18.15;8.63;;;;;;;11.88;99.93;101345.97;4983337;28;20044;-73
2022/10/02 00:58:16;;;;;;;21.48;10.95;;;;;;;11.88;98.85;101339.97;4981497;28;20487;-74
2022/10/02 01:00:55;;;;;;;21.23;11.32;;;;;;;11.87;99.74;101346.94;4983128;28;20035;-73
2022/10/02 01:03:33;;;;;;;24.75;11.80;;;;;;;11.83;100.00;101336.91;4981018;28;20389;-73
2022/10/02 01:05:58;;;;;;;20.40;11.18;;;;;;;11.87;100.00;101333.09;4977438;28;20026;-73
2022/10/02 01:08:24;;;;;;;22.80;12.50;;;;;;;11.89;100.00;101339.00;4985554;28;20030;-73
2022/10/02 01:10:50;;;;;;;21.27;11.82;;;;;;;11.92;100.00;101328.34;4981927;28;20022;-73
2022/10/02 01:13:16;;;;;;;21.48;12.60;;;;;;;11.92;100.00;101346.53;4975274;28;20038;-73
2022/10/02 01:15:51;;;;;;;23.90;13.10;;;;;;;11.83;100.00;101342.09;4979296;28;20034;-73
2022/10/02 01:18:17;;;;;;;25.27;13.55;;;;;;;11.68;100.00;101329.31;4986323;28;20045;-74
2022/10/02 01:20:47;;;;;;;23.65;13.20;;;;;;;11.82;100.00;101340.44;4984668;28;20477;-74
2022/10/02 01:23:17;;;;;;;27.25;13.23;;;;;;;11.85;100.00;101346.22;4986795;28;20473;-74
2022/10/02 01:25:43;;;;;;;28.58;13.68;;;;;;;11.82;100.00;101335.25;4978386;28;20030;-74
2022/10/02 01:28:10;;;;;;;25.17;12.50;;;;;;;11.82;100.00;101335.25;4986731;28;20057;-73
2022/10/02 01:30:40;;;;;;;29.23;13.40;;;;;;;11.74;100.00;101347.97;4980738;28;20061;-73
2022/10/02 01:33:05;;;;;;;23.55;11.93;;;;;;;11.75;100.00;101340.03;4985233;28;20023;-74
2022/10/02 01:35:34;;;;;;;24.95;11.88;;;;;;;11.75;100.00;101352.22;4989682;28;20052;-75
2022/10/02 01:38:04;;;;;;;26.25;12.07;;;;;;;11.74;100.00;101358.34;4972772;28;20037;-74
2022/10/02 01:40:35;;;;;;;28.25;12.55;;;;;;;11.70;100.00;101353.41;4985801;28;20075;-74
2022/10/02 01:43:06;;;;;;;25.85;12.48;;;;;;;11.63;100.00;101347.03;4987582;28;20487;-73
2022/10/02 01:45:42;;;;;;;24.58;12.07;;;;;;;11.68;100.00;101365.69;4985629;28;20046;-74
2022/10/02 01:48:15;;;;;;;25.77;10.90;;;;;;;11.68;100.00;101373.47;4984025;28;20416;-74
2022/10/02 01:51:03;;;;;;;24.90;10.45;;;;;;;11.76;100.00;101362.50;4986971;28;20058;-75
2022/10/02 01:53:49;;;;;;;25.67;9.07;;;;;;;11.77;100.00;101363.34;4984087;28;20477;-75
2022/10/02 01:56:22;;;;;;;26.63;9.45;;;;;;;11.75;100.00;101365.19;4979267;28;20080;-76
2022/10/02 01:59:10;;;;;;;22.20;8.32;;;;;;;11.76;100.00;101369.47;4976779;28;20064;-74
2022/10/02 02:01:51;;;;;;;20.92;7.80;;;;;;;11.78;100.00;101370.19;4984664;28;20030;-74
2022/10/02 02:04:28;;;;;;;22.05;7.75;;;;;;;11.77;100.00;101358.13;4984784;28;20030;-74
2022/10/02 02:07:26;;;;;;;24.23;8.65;;;;;;;11.75;100.00;101365.19;4986485;28;20113;-75
2022/10/02 02:10:24;;;;;;;24.30;7.85;;;;;;;11.77;100.00;101363.34;4990357;28;20312;-74
2022/10/02 02:13:21;;;;;;;23.08;7.38;;;;;;;11.77;100.00;101358.97;4986499;28;20120;-75
2022/10/02 02:16:05;;;;;;;29.15;8.80;;;;;;;11.70;100.00;101348.22;4975724;28;20037;-74
2022/10/02 02:18:42;;;;;;;22.38;6.68;;;;;;;11.74;100.00;101363.56;4977839;28;20033;-74
2022/10/02 02:21:17;;;;;;;22.98;6.95;;;;;;;11.64;100.00;101346.09;4986331;28;20065;-74
2022/10/02 02:23:42;;;;;;;20.98;6.22;;;;;;;11.79;100.00;101366.63;4989989;28;20105;-74
2022/10/02 02:26:11;;;;;;;22.52;7.07;;;;;;;11.78;100.00;101370.19;4989466;28;20512;-74
2022/10/02 02:28:42;;;;;;;25.80;6.40;;;;;;;11.78;100.00;101359.78;4982951;28;20065;-75
2022/10/02 02:31:11;;;;;;;26.85;7.35;;;;;;;11.78;100.00;101354.59;4985776;28;20041;-74
2022/10/02 02:33:48;;;;;;;24.08;7.53;;;;;;;11.79;100.00;101351.03;4988872;28;20109;-75
2022/10/02 02:36:17;;;;;;;25.27;6.68;;;;;;;11.78;100.00;101345.00;4976764;28;20062;-74
2022/10/02 02:39:11;;;;;;;23.90;6.53;;;;;;;11.87;100.00;101349.53;4982163;28;20033;-74
2022/10/02 02:41:42;;;;;;;24.63;6.72;;;;;;;11.84;100.00;101356.72;4976859;28;20042;-74
2022/10/02 02:44:23;;;;;;;20.33;6.22;;;;;;;11.85;100.00;101355.78;4986228;28;20026;-75
2022/10/02 02:47:05;;;;;;;26.20;6.90;;;;;;;11.82;100.00;101356.88;4984945;28;20038;-74
2022/10/02 02:50:11;;;;;;;24.48;6.28;;;;;;;11.84;100.00;101354.13;4997939;28;20031;-74
2022/10/02 02:52:54;;;;;;;22.88;6.20;;;;;;;11.83;100.00;101357.69;4985375;28;20026;-74
2022/10/02 02:55:34;;;;;;;21.30;5.97;;;;;;;11.83;100.00;101358.50;4981351;28;20034;-74
2022/10/02 02:58:12;;;;;;;21.13;6.20;;;;;;;11.75;100.00;101368.63;4987811;28;20153;-74
2022/10/02 03:00:38;;;;;;;21.70;6.10;;;;;;;11.79;100.00;101366.63;4989851;28;20037;-74
2022/10/02 03:03:04;;;;;;;24.33;6.35;;;;;;;11.77;100.00;101368.53;4987084;28;20034;-74
2022/10/02 03:05:31;;;;;;;20.02;5.50;;;;;;;11.79;100.00;101372.66;4985863;28;20046;-75
2022/10/02 03:08:02;;;;;;;21.35;6.05;;;;;;;11.77;100.00;101366.75;4985711;28;20026;-74
2022/10/02 03:10:44;;;;;;;28.00;6.97;;;;;;;11.78;100.00;101370.19;4986589;28;20086;-75
2022/10/02 03:13:43;;;;;;;25.05;6.60;;;;;;;11.83;100.00;101373.28;4988270;28;20030;-74
2022/10/02 03:16:27;;;;;;;;;;;;;;;11.92;100.00;101368.16;4989143;28;20025;-74
2022/10/02 03:19:26;;;;;;;25.08;6.72;;;;;;;11.88;100.00;101365.94;4985050;28;19917;-76
2022/10/02 03:22:10;;;;;;;28.02;6.93;;;;;;;11.84;100.00;101369.72;4980146;28;20507;-74
2022/10/02 03:24:51;;;;;;;25.80;7.13;;;;;;;11.83;100.00;101374.09;4983586;28;20040;-73
2022/10/02 03:27:25;;;;;;;27.15;7.00;;;;;;;11.79;100.00;101366.63;4985818;28;20137;-74
2022/10/02 03:30:03;;;;;;;26.45;7.57;;;;;;;11.81;100.00;101369.91;4988561;28;20030;-74
2022/10/02 03:32:31;;;;;;;29.40;8.10;;;;;;;11.79;100.00;101361.44;4989293;28;20117;-74
2022/10/02 03:34:57;;;;;;;29.33;8.23;;;;;;;11.79;100.00;101366.63;4987352;28;20464;-74
2022/10/02 03:37:24;;;;;;;29.15;8.05;;;;;;;11.77;100.00;101374.56;4982778;28;20022;-74
2022/10/02 03:39:51;;;;;;;27.73;7.90;;;;;;;11.81;100.00;101364.72;4978355;28;20069;-74
2022/10/02 03:42:23;;;;;;;31.90;7.57;;;;;;;11.76;100.00;101377.28;4987561;28;20030;-74
2022/10/02 03:44:48;;;;;;;29.95;7.72;;;;;;;11.76;100.00;101372.09;4981457;28;20121;-74
2022/10/02 03:47:15;;;;;;;25.98;7.80;;;;;;;11.74;100.00;101369.56;4983572;28;20125;-74
2022/10/02 03:49:40;;;;;;;26.20;7.50;;;;;;;11.80;100.00;101378.66;4986227;28;20050;-74
2022/10/02 03:52:06;;;;;;;27.90;7.63;;;;;;;11.77;100.00;101368.53;4983745;28;20019;-74
2022/10/02 03:54:34;;;;;;;27.20;7.82;;;;;;;11.68;100.00;101344.91;4988586;28;20452;-74
2022/10/02 03:57:11;;;;;;;26.30;7.88;;;;;;;11.76;100.00;101377.28;4977547;28;20105;-74
2022/10/02 04:00:01;;;;;;;28.30;8.13;;;;;;;11.78;100.00;101370.19;4985188;28;20443;-74
2022/10/02 04:02:41;;;;;;;27.73;8.00;;;;;;;11.80;100.00;101378.66;4981174;28;20057;-74
2022/10/02 04:05:35;;;;;;;26.40;7.63;;;;;;;11.78;100.00;101370.19;4984627;28;20062;-74
2022/10/02 04:08:23;;;;;;;25.52;7.47;;;;;;;11.84;100.00;101380.94;4986455;28;20030;-75
2022/10/02 04:11:10;;;;;;;28.95;8.10;;;;;;;11.85;100.00;101379.19;4971737;28;20026;-75
2022/10/02 04:13:53;;;;;;;28.48;7.65;;;;;;;11.83;100.00;101383.69;4986907;28;20046;-74
2022/10/02 04:16:30;;;;;;;22.17;6.63;;;;;;;11.82;100.00;101387.22;4975626;28;20030;-74
2022/10/02 04:19:01;;;;;;;23.13;6.45;;;;;;;11.78;100.00;101381.41;4973353;28;20113;-75
2022/10/02 04:21:43;;;;;;;23.38;6.82;;;;;;;11.73;100.00;101364.50;4976678;28;20033;-74
2022/10/02 04:24:27;;;;;;;23.08;6.57;;;;;;;11.78;100.00;101377.97;4986990;28;20029;-74
2022/10/02 04:27:17;;;;;;;24.63;7.28;;;;;;;11.61;100.00;101354.13;4982331;28;20038;-73
2022/10/02 04:29:49;;;;;;;18.38;6.00;;;;;;;11.76;100.00;101383.31;4980008;28;20038;-73
2022/10/02 04:32:26;;;;;;;24.00;6.97;;;;;;;11.77;100.00;101369.34;4982943;28;20038;-74
2022/10/02 04:34:53;;;;;;;23.20;5.90;;;;;;;11.75;100.00;101373.00;4987777;28;20030;-75
2022/10/02 04:37:40;;;;;;;21.55;6.13;;;;;;;11.76;100.00;101377.28;4975030;28;20483;-74
2022/10/02 04:40:33;;;;;;;24.90;6.38;;;;;;;11.74;100.00;101384.34;4975758;28;20484;-75
2022/10/02 04:43:31;;;;;;;21.38;5.68;;;;;;;11.75;100.00;101388.59;4986152;28;20034;-74
2022/10/02 04:45:57;;;;;;;22.15;6.10;;;;;;;11.76;100.00;101388.50;4983577;28;20030;-73
2022/10/02 04:48:23;;;;;;;22.42;6.40;;;;;;;11.73;100.00;101400.88;4979089;28;20035;-74
2022/10/02 04:51:10;;;;;;;24.00;5.90;;;;;;;11.75;100.00;101406.78;4984116;28;20041;-74
2022/10/02 04:53:57;;;;;;;17.45;5.20;;;;;;;11.74;100.00;101402.53;4986077;28;20029;-75
2022/10/02 04:56:22;;;;;;;23.77;5.85;;;;;;;11.67;100.00;101395.22;4984515;28;20101;-74
2022/10/02 04:59:03;;;;;;;22.38;6.25;;;;;;;11.67;100.00;101410.81;4987437;28;20077;-74
2022/10/02 05:01:56;;;;;;;20.63;6.10;;;;;;;11.68;100.00;101419.44;4984740;28;20388;-74
2022/10/02 05:04:53;;;;;;;19.33;5.82;;;;;;;11.63;100.00;101414.56;4986114;28;20461;-74
2022/10/02 05:07:30;;;;;;;19.33;5.88;;;;;;;11.56;100.00;101413.41;4984733;28;20030;-74
2022/10/02 05:10:15;;;;;;;19.73;5.63;;;;;;;11.53;100.00;101413.66;4990682;28;20026;-74
2022/10/02 05:12:52;;;;;;;22.92;5.93;;;;;;;11.57;100.00;101422.00;4989529;28;20077;-74
2022/10/02 05:15:36;;;;;;;22.42;5.85;;;;;;;11.52;100.00;101426.72;4991042;28;20034;-75
2022/10/02 05:18:29;;;;;;;22.60;6.47;;;;;;;11.56;100.00;101423.78;4986738;28;20038;-74
2022/10/02 05:21:02;;;;;;;19.45;6.53;;;;;;;11.50;100.00;101419.06;4989735;28;20031;-74
2022/10/02 05:23:41;;;;;;;21.20;5.90;;;;;;;11.49;100.00;101427.81;4982694;28;20036;-74
2022/10/02 05:26:27;;;;;;;18.33;5.80;;;;;;;11.50;100.00;101434.66;4989683;28;20105;-74
2022/10/02 05:29:18;;;;;;;19.98;6.10;;;;;;;11.51;100.00;101438.91;4990001;28;20054;-74
2022/10/02 05:32:04;;;;;;;21.70;6.40;;;;;;;11.53;100.00;101450.03;4986461;28;20034;-75
2022/10/02 05:34:36;;;;;;;22.45;5.80;;;;;;;11.49;100.00;101440.78;4989595;28;20046;-74
2022/10/02 05:37:10;;;;;;;20.35;5.63;;;;;;;11.45;100.00;101447.16;4990540;28;20030;-74
2022/10/02 05:39:45;;;;;;;19.15;5.13;;;;;;;11.45;100.00;101452.34;4991047;28;20026;-74
2022/10/02 05:42:11;;;;;;;16.77;5.32;;;;;;;11.50;100.00;101455.44;4987121;28;20064;-74
2022/10/02 05:44:40;;;;;;;20.55;6.07;;;;;;;11.45;100.00;101452.34;4984335;28;20472;-74
2022/10/02 05:47:08;;;;;;;16.70;5.15;;;;;;;11.44;100.00;101461.09;4977174;28;20030;-77
2022/10/02 05:49:37;;;;;;;16.88;4.88;;;;;;;11.47;100.00;101460.88;4975436;28;20558;-73
2022/10/02 05:52:11;;;;;;;17.33;4.43;;;;;;;11.44;100.00;101456.72;4987957;28;20527;-74
2022/10/02 05:54:52;;;;;;;15.63;4.90;;;;;;;11.44;100.00;101467.09;4982986;28;20030;-74
2022/10/02 05:57:40;;;;;;;15.95;4.75;;;;;;;11.44;100.00;101466.28;4987168;28;20030;-74
2022/10/02 06:00:22;;;;;;;19.85;5.20;;;;;;;11.46;100.00;101479.97;4989716;28;20027;-76
2022/10/02 06:03:30;;;;;;;17.05;4.88;;;;;;;11.52;100.00;101479.50;4988298;28;20045;-73
2022/10/02 06:05:59;;;;;;;17.13;4.72;;;;;;;11.44;100.00;101466.28;4990092;28;20037;-74
2022/10/02 06:08:40;;;;;;;20.65;5.13;;;;;;;11.47;100.00;101460.88;4989817;28;20038;-73
2022/10/02 06:11:47;;;;;;;15.98;5.40;;;;;;;11.55;100.00;101476.69;4979462;28;20112;-74
2022/10/02 06:14:32;;;;;;;17.23;5.17;;;;;;;11.54;100.00;101472.44;4988580;28;20053;-74
2022/10/02 06:17:27;;;;;;;19.25;5.88;;;;;;;11.55;100.00;101474.09;4989238;28;20052;-74
2022/10/02 06:19:59;;;;;;;17.45;5.00;;;;;;;11.57;100.00;101487.78;4977977;28;20080;-74
2022/10/02 06:22:29;;;;;;;16.92;5.07;;;;;;;11.57;100.00;101492.16;4989840;28;20035;-76
2022/10/02 06:25:02;;;;;;;16.75;4.55;;;;;;;11.63;100.00;101497.72;4989380;28;20068;-74
2022/10/02 06:27:51;;;;;;;19.77;5.40;;;;;;;11.67;100.00;101503.53;4989084;28;20050;-74
2022/10/02 06:30:18;;;;;;;19.15;4.82;;;;;;;11.67;100.00;101499.16;4983234;28;20467;-75
2022/10/02 06:33:00;;;;;;;19.25;4.97;;;;;;;11.66;100.00;101507.91;4974488;28;20487;-74
2022/10/02 06:35:43;;;;;;;19.75;5.63;;;;;;;11.67;100.00;101499.16;4988987;28;20508;-74
2022/10/02 06:38:39;;;;;;;18.10;5.28;;;;;;;11.70;100.00;101493.75;4982624;28;20041;-74
2022/10/02 06:41:10;;;;;;;20.15;5.55;;;;;;;11.74;100.00;101493.50;4976030;28;20171;-74
2022/10/02 06:43:47;;;;;;;19.30;5.32;;;;;;;11.77;100.00;101496.69;4978748;28;20113;-74
2022/10/02 06:46:31;;;;;;;20.02;5.93;;;;;;;11.77;100.00;101490.69;4984681;28;20054;-74
2022/10/02 06:49:09;;;;;;;19.17;5.30;;;;;;;11.80;100.00;101503.41;4986951;28;20065;-74
2022/10/02 06:51:56;;;;;;;24.10;5.60;;;;;;;11.83;100.00;101498.03;4989606;28;20489;-74
2022/10/02 06:54:43;;;;;;;21.30;6.40;;;;;;;11.88;100.00;101506.31;4988386;28;20034;-74
2022/10/02 06:57:19;;;;;;;20.63;6.30;;;;;;;11.86;100.00;101497.78;4976779;28;20061;-74
2022/10/02 07:00:10;;;;;;;19.00;6.10;;;;;;;11.90;100.00;101501.81;4973540;28;20077;-75
2022/10/02 07:02:54;;;;;;;26.42;6.90;;;;;;;11.92;100.00;101518.13;4985872;28;20022;-74
2022/10/02 07:05:44;;;;;;;20.30;6.82;;;;;;;11.95;100.00;101515.28;4975036;28;20027;-74
2022/10/02 07:08:52;;;;;;;20.80;6.25;;;;;;;11.99;100.00;101521.91;4980486;28;20648;-74
2022/10/02 07:11:34;;;;;;;20.80;6.50;;;;;;;12.00;100.00;101520.97;4972619;28;20061;-76
2022/10/02 07:14:22;;;;;;;21.58;5.95;;;;;;;12.00;100.00;101531.38;4977041;28;20182;-74
2022/10/02 07:16:56;;;;;;;21.88;6.07;;;;;;;12.00;100.00;101536.56;4942343;28;20054;-74
2022/10/02 07:19:51;;;;;;;20.88;5.63;;;;;;;12.02;100.00;101529.47;4982511;28;20035;-74
2022/10/02 07:22:34;;;;;;;23.35;6.47;;;;;;;12.06;100.00;101528.31;4980600;28;20038;-74
2022/10/02 07:25:21;;;;;;;21.92;6.38;;;;;;;12.12;100.00;101534.81;4989489;28;20030;-74
2022/10/02 07:28:01;;;;;;;25.75;6.93;;;;;;;12.16;100.00;101526.66;4979797;28;20066;-74
2022/10/02 07:30:34;;;;;;;19.00;6.00;;;;;;;12.26;100.00;101531.13;4974951;28;20539;-76
2022/10/02 07:33:09;;;;;;;20.90;6.55;;;;;;;12.33;100.00;101534.91;4977169;28;20275;-74
2022/10/02 07:36:00;;;;;;;21.95;6.30;;;;;;;12.41;100.00;101542.94;4975322;28;20031;-74
2022/10/02 07:38:42;;;;;;;19.20;6.15;;;;;;;12.46;100.00;101548.63;4975117;28;20548;-75
2022/10/02 07:41:47;;;;;;;19.17;6.22;;;;;;;12.52;100.00;101547.31;4973591;28;20073;-75
2022/10/02 07:44:34;;;;;;;21.05;6.25;;;;;;;12.54;100.00;101546.25;4970367;28;20039;-73
2022/10/02 07:47:26;;;;;;;24.65;6.15;;;;;;;12.57;100.00;101553.81;4971334;28;20045;-73
2022/10/02 07:50:10;;;;;;;24.42;5.30;;;;;;;12.64;100.00;101552.38;4977582;28;20109;-74
2022/10/02 07:53:08;;;;;;;23.02;5.50;;;;;;;12.66;100.00;101560.91;4970728;28;20039;-75
2022/10/02 07:55:37;;;;;;;22.53;5.97;;;;;;;12.71;100.00;101558.75;4971077;28;20473;-74
2022/10/02 07:58:10;;;;;;;24.50;5.25;;;;;;;12.74;100.00;101565.50;4985434;28;20077;-74
2022/10/02 08:00:50;;;;;;;17.98;5.28;;;;;;;12.79;100.00;101570.34;4977936;28;20073;-74
2022/10/02 08:03:20;;;;;;;17.08;5.15;;;;;;;12.80;100.00;101565.03;4984280;28;20406;-74
2022/10/02 08:05:50;;;;;;;22.40;5.68;;;;;;;12.85;100.00;101575.09;4988458;28;20026;-74
2022/10/02 08:08:46;;;;;;;17.15;4.90;;;;;;;12.87;100.00;101574.00;4985463;28;20034;-74
2022/10/02 08:11:17;;;;;;;20.63;5.20;;;;;;;12.92;100.00;101576.25;4980948;28;20018;-74
2022/10/02 08:14:06;;;;;;;21.48;5.00;;;;;;;12.95;100.00;101582.00;4982865;28;20502;-74
2022/10/02 08:16:37;;;;;;;19.17;4.82;;;;;;;13.02;100.00;101592.81;4977816;28;20050;-74
2022/10/02 08:19:15;;;;;;;22.55;5.30;;;;;;;13.10;100.00;101587.78;4972623;28;20069;-74
2022/10/02 08:21:48;;;;;;;23.20;5.47;;;;;;;13.13;100.00;101595.38;4976291;28;20121;-75
2022/10/02 08:24:19;;;;;;;20.95;5.18;;;;;;;13.17;100.00;101601.97;4972594;28;20551;-74
2022/10/02 08:27:09;;;;;;;17.02;5.22;;;;;;;13.22;100.00;101609.47;4970063;28;20078;-74
2022/10/02 08:29:49;;;;;;;19.17;4.90;;;;;;;13.22;100.00;101609.47;4977247;28;20444;-73
2022/10/02 08:32:14;;;;;;;21.13;5.10;;;;;;;13.31;100.00;101607.91;4972169;28;20100;-74
2022/10/02 08:34:41;;;;;;;18.20;4.97;;;;;;;13.23;100.00;101604.13;4985350;28;20054;-74
2022/10/02 08:37:19;;;;;;;16.00;4.55;;;;;;;13.35;100.00;101611.91;4968488;28;20484;-75
2022/10/02 08:40:18;;;;;;;15.93;4.82;;;;;;;13.39;100.00;101621.13;4977927;28;20038;-75
2022/10/02 08:42:58;;;;;;;19.80;4.90;;;;;;;13.40;100.00;101622.78;4970075;28;20030;-74
2022/10/02 08:46:01;;;;;;;20.42;5.05;;;;;;;13.49;100.00;101632.47;4986945;28;20189;-75
2022/10/02 08:48:53;;;;;;;17.40;4.85;;;;;;;13.50;100.00;101628.91;4977323;28;20026;-75
2022/10/02 08:52:03;;;;;;;18.60;4.40;;;;;;;13.48;100.00;101625.59;4982958;28;20037;-75
2022/10/02 08:55:02;;;;;;;20.05;4.78;;;;;;;13.60;100.00;101642.03;4969525;28;20113;-74
2022/10/02 08:57:48;;;;;;;17.25;4.55;;;;;;;13.63;100.00;101650.41;4982450;28;20026;-74
2022/10/02 09:00:22;;;;;;;20.10;4.50;;;;;;;13.68;100.00;101643.03;4982427;28;20080;-75
2022/10/02 09:03:18;;;;;;;14.55;3.70;;;;;;;13.72;100.00;101647.06;4978783;28;20402;-75
2022/10/02 09:06:21;;;;;;;18.23;4.32;;;;;;;13.77;100.00;101657.13;4981184;28;20038;-74
2022/10/02 09:09:20;;;;;;;16.13;4.00;;;;;;;13.79;100.00;101658.63;4956898;28;20043;-74
2022/10/02 09:12:10;;;;;;;15.05;3.60;;;;;;;13.89;100.00;101650.06;4960921;28;20134;-74
2022/10/02 09:14:49;;;;;;;18.55;4.22;;;;;;;13.94;100.00;101650.53;4949454;28;20585;-74
2022/10/02 09:17:38;;;;;;;17.08;3.85;;;;;;;14.04;100.00;101661.81;4959963;28;20034;-74
2022/10/02 09:20:03;;;;;;;17.63;4.50;;;;;;;14.21;100.00;101655.19;4959436;28;20092;-73
2022/10/02 09:23:05;;;;;;;16.75;3.22;;;;;;;14.25;100.00;101654.81;4962157;28;20473;-74
2022/10/02 09:25:36;;;;;;;16.75;4.00;;;;;;;14.38;100.00;101661.63;4955522;28;20038;-74
2022/10/02 09:28:41;;;;;;;15.60;4.20;;;;;;;14.47;100.00;101646.03;4950827;28;20141;-74
2022/10/02 09:31:39;;;;;;;18.83;4.00;;;;;;;14.56;99.55;101657.47;4954762;28;20047;-73
2022/10/02 09:34:25;;;;;;;11.77;3.17;;;;;;;14.55;97.71;101658.44;4959841;28;20031;-74
2022/10/02 09:37:36;;;;;;;14.18;3.50;;;;;;;14.68;97.81;101653.84;4964738;28;20700;-74
2022/10/02 09:40:31;;;;;;;13.48;3.00;;;;;;;14.64;95.60;101657.66;4929999;28;20445;-74
2022/10/02 09:43:03;;;;;;;13.55;3.22;;;;;;;14.63;95.19;101660.41;4934146;28;20413;-75
2022/10/02 09:46:25;;;;;;;13.30;3.03;;;;;;;14.64;95.11;101667.28;4975690;28;20054;-74
2022/10/02 09:49:24;;;;;;;14.65;3.20;;;;;;;14.60;92.78;101671.94;4956035;28;20365;-74
2022/10/02 09:52:27;;;;;;;14.80;3.10;;;;;;;14.64;94.07;101668.09;4957432;28;20543;-74
2022/10/02 09:55:18;;;;;;;15.38;3.75;;;;;;;14.59;91.95;101676.31;4968617;28;20073;-74
2022/10/02 09:58:21;;;;;;;13.90;3.25;;;;;;;14.64;92.70;101678.56;4952843;28;20035;-75
2022/10/02 10:01:36;;;;;;;13.43;3.13;;;;;;;14.76;94.04;101687.94;4951743;28;20113;-74
2022/10/02 10:04:11;;;;;;;17.38;3.92;;;;;;;14.75;91.11;101678.47;4967488;28;20508;-75
2022/10/02 10:06:45;;;;;;;16.35;3.72;;;;;;;14.92;92.93;101682.25;4957124;28;20057;-75
2022/10/02 10:09:34;;;;;;;14.73;3.55;;;;;;;14.97;91.61;101690.50;4967819;28;20039;-74
2022/10/02 10:12:08;;;;;;;13.98;3.60;;;;;;;14.87;91.52;101690.47;4959063;28;20037;-74
2022/10/02 10:14:48;;;;;;;11.40;3.70;;;;;;;14.98;90.66;101691.34;4954938;28;20040;-74
2022/10/02 10:17:26;;;;;;;14.63;3.20;;;;;;;15.13;89.93;101679.53;4961679;28;20038;-75
2022/10/02 10:20:21;;;;;;;13.02;2.83;;;;;;;15.24;88.54;101695.09;4941690;28;20109;-74
2022/10/02 10:23:22;;;;;;;15.13;2.88;;;;;;;15.36;88.44;101686.19;4975091;28;20045;-74
2022/10/02 10:25:59;;;;;;;16.25;2.92;;;;;;;15.44;87.69;101697.78;4928790;29;20039;-74
2022/10/02 10:28:54;;;;;;;15.63;3.10;;;;;;;15.43;85.93;101701.34;4929294;29;20068;-74
2022/10/02 10:31:28;;;;;;;11.90;2.90;;;;;;;15.41;84.94;101699.69;4919856;29;20130;-74
2022/10/02 10:34:27;;;;;;;13.95;3.50;;;;;;;15.51;86.10;101697.09;4914295;29;20642;-74
2022/10/02 10:40:26;;;;;;;14.55;3.45;;;;;;;15.40;83.00;101695.41;4929603;29;20076;-75
2022/10/02 10:43:27;;;;;;;12.07;3.10;;;;;;;15.49;82.01;101700.81;4923684;29;20040;-75
2022/10/02 10:46:33;;;;;;;12.93;2.90;;;;;;;15.63;83.41;101723.97;4928738;29;20450;-75
2022/10/02 10:49:04;;;;;;;13.57;3.33;;;;;;;15.59;82.60;101727.78;4926101;29;20118;-75
2022/10/02 10:51:40;;;;;;;12.27;2.75;;;;;;;15.49;81.21;101729.56;4928881;29;20104;-75
2022/10/02 10:54:39;;;;;;;13.63;2.88;;;;;;;15.47;81.95;101739.31;4928870;29;20512;-77
2022/10/02 10:57:11;;;;;;;11.98;3.20;;;;;;;15.37;81.27;101734.91;4925203;29;20039;-75
2022/10/02 10:59:58;;;;;;;11.25;2.70;;;;;;;15.32;80.92;101742.31;4929862;29;20423;-75
2022/10/02 11:02:45;;;;;;;13.65;3.10;;;;;;;15.33;81.78;101743.16;4946495;28;20498;-75
2022/10/02 11:05:35;;;;;;;13.50;3.53;;;;;;;15.36;81.19;101741.06;4981199;28;20034;-75
2022/10/02 11:08:21;;;;;;;12.68;3.10;;;;;;;15.38;82.79;101736.56;4987767;28;20045;-75
2022/10/02 11:11:17;;;;;;;11.95;3.13;;;;;;;15.33;81.29;101749.19;4988764;28;20121;-76
2022/10/02 11:13:48;;;;;;;12.05;2.85;;;;;;;15.31;81.74;101745.91;4988461;28;20027;-75
2022/10/02 11:16:42;;;;;;;14.70;3.20;;;;;;;15.40;83.09;101749.47;4984536;28;20022;-75
2022/10/02 11:19:35;;;;;;;14.23;3.10;;;;;;;15.38;81.03;101757.47;4989033;28;20480;-75
2022/10/02 11:22:32;;;;;;;12.93;2.92;;;;;;;15.52;82.15;101758.88;4984573;28;20046;-75
2022/10/02 11:25:14;;;;;;;10.77;2.67;;;;;;;15.48;80.02;101757.47;4986359;28;20061;-74
2022/10/02 11:27:40;;;;;;;13.30;3.35;;;;;;;15.50;79.22;101749.50;4987098;28;20050;-74
2022/10/02 11:30:19;;;;;;;11.98;2.70;;;;;;;15.56;80.43;101759.44;4984532;28;20539;-75
2022/10/02 11:33:15;;;;;;;12.75;3.10;;;;;;;15.62;80.74;101762.38;4976755;28;20050;-75
2022/10/02 11:36:03;;;;;;;14.02;3.03;;;;;;;15.65;80.38;101753.41;4986909;28;20053;-76
2022/10/02 11:38:28;;;;;;;11.38;2.83;;;;;;;15.71;80.10;101763.31;4982523;28;20081;-75
2022/10/02 11:41:25;;;;;;;13.45;3.03;;;;;;;15.64;80.97;101770.88;4988710;28;20027;-75
2022/10/02 11:44:09;;;;;;;11.50;2.80;;;;;;;15.71;80.39;101768.56;4984050;28;20069;-75
2022/10/02 11:46:59;;;;;;;11.73;2.50;;;;;;;15.71;80.24;101779.03;4986215;28;20036;-75
2022/10/02 11:50:04;;;;;;;13.50;3.08;;;;;;;15.73;81.17;101769.28;4984418;28;20057;-75
2022/10/02 11:52:47;;;;;;;10.77;2.70;;;;;;;15.66;79.63;101765.56;4974592;28;20030;-76
2022/10/02 11:55:33;;;;;;;11.77;2.58;;;;;;;15.55;79.42;101763.03;4977104;28;20027;-76
2022/10/02 11:58:11;;;;;;;11.15;2.60;;;;;;;15.57;78.91;101771.53;4985024;28;20026;-75
2022/10/02 12:01:07;;;;;;;11.43;3.10;;;;;;;15.62;78.29;101777.19;4986391;28;20072;-76
2022/10/02 12:03:51;;;;;;;12.15;2.85;;;;;;;15.58;78.16;101770.56;4971745;28;20031;-76
2022/10/02 12:06:35;;;;;;;13.82;2.85;;;;;;;15.59;76.64;101785.31;4984342;28;20114;-74
2022/10/02 12:09:27;;;;;;;11.30;2.35;;;;;;;15.61;75.28;101778.16;5000983;28;20041;-75
2022/10/02 12:12:16;;;;;;;8.60;2.28;;;;;;;15.57;73.39;101776.78;4985330;28;20049;-75
2022/10/02 12:14:41;;;;;;;;;;;;;;;15.68;75.14;101784.53;4983404;28;20053;-75
2022/10/02 12:17:18;;;;;;;12.20;2.95;;;;;;;15.64;71.67;101783.16;4979167;28;20355;-75
2022/10/02 12:29:07;;;;;;;9.93;2.35;;;;;;;15.91;68.72;101788.56;4969423;28;20592;-74